Church Road, Virginia
Current Conditions -  °F | °C
As of 11:35 AM on Wednesday 26 Nov 2014 (Local Time) from KPTB Reporting Station
Light Rain Light Rain  
Wind Chill: 37°   Ceiling: 800
Heat Index: 43°   Visibility: 10mi
Dew Point: 42°   Wind: 12mph
Humidity: 95%   Direction: 10°N
Pressure: 29.91"   Gusts: 18mph
Location:  37.16°N, 77.6°W
Report Text: KPTB 261635Z AUTO 01010G16KT 10SM -RA OVC008 06/06 A2991 RMK AO2 P0006 T00630055
Loading
Personal Weather Stations






























Interactive Weather Map New forecast layout! Learn more

10-Day Weather Forecast

Advertisements
Track Severe Weather on mobile